createdAt,value
2023-07-19T00:01:45.634Z,90.59
2023-07-19T00:04:14.010Z,90.53
2023-07-19T00:06:42.397Z,90.72
2023-07-19T00:09:10.696Z,90.61
2023-07-19T00:11:39.069Z,91.09
2023-07-19T00:14:08.940Z,90.79
2023-07-19T00:16:37.388Z,90.76
2023-07-19T00:19:19.148Z,90.13
2023-07-19T00:21:48.894Z,90.86
2023-07-19T00:24:17.257Z,90.09
2023-07-19T00:26:46.558Z,89.54
2023-07-19T00:29:16.418Z,89.41
2023-07-19T00:31:45.230Z,90.29
2023-07-19T00:34:14.543Z,89.62
2023-07-19T00:36:43.798Z,88.60
2023-07-19T00:39:13.406Z,91.47
2023-07-19T00:41:42.507Z,89.83
2023-07-19T00:44:10.808Z,89.79
2023-07-19T00:46:41.312Z,88.89
2023-07-19T00:49:10.375Z,90.73
2023-07-19T00:51:38.920Z,90.87
2023-07-19T00:54:09.761Z,89.68
2023-07-19T00:56:39.037Z,88.41
2023-07-19T00:59:07.864Z,88.39
2023-07-19T01:01:37.342Z,88.50
2023-07-19T01:04:08.535Z,87.73
2023-07-19T01:06:36.919Z,88.60
2023-07-19T01:09:05.915Z,88.73
2023-07-19T01:11:34.269Z,89.14
2023-07-19T01:14:02.647Z,88.25
2023-07-19T01:16:32.403Z,88.19
2023-07-19T01:19:01.579Z,88.97
2023-07-19T01:21:31.962Z,88.81
2023-07-19T01:24:01.860Z,87.77
2023-07-19T01:26:30.189Z,89.13
2023-07-19T01:28:59.958Z,88.96
2023-07-19T01:31:29.110Z,87.85
2023-07-19T01:33:57.758Z,88.05
2023-07-19T01:36:27.325Z,88.92
2023-07-19T01:38:55.849Z,89.51
2023-07-19T01:41:25.801Z,88.40
2023-07-19T01:43:55.575Z,87.38
2023-07-19T01:46:24.328Z,86.67
2023-07-19T01:48:52.710Z,87.41
2023-07-19T01:51:21.236Z,88.02
2023-07-19T01:53:49.774Z,88.28
2023-07-19T01:56:18.067Z,88.44
2023-07-19T01:58:47.762Z,87.92
2023-07-19T02:01:17.973Z,86.77
2023-07-19T02:03:46.443Z,87.84
2023-07-19T02:06:15.152Z,87.89
2023-07-19T02:08:43.461Z,88.52
2023-07-19T02:11:11.993Z,88.02
2023-07-19T02:13:40.466Z,86.42
2023-07-19T02:16:10.351Z,87.70
2023-07-19T02:18:39.203Z,87.21
2023-07-19T02:21:07.507Z,87.37
2023-07-19T02:23:36.326Z,86.87
2023-07-19T02:26:04.706Z,87.94
2023-07-19T02:28:33.022Z,87.01
2023-07-19T02:31:01.360Z,86.44
2023-07-19T02:33:33.498Z,87.22
2023-07-19T02:36:02.005Z,86.48
2023-07-19T02:38:30.331Z,86.68
2023-07-19T02:41:02.135Z,86.54
2023-07-19T02:43:31.488Z,87.57
2023-07-19T02:45:59.945Z,86.38
2023-07-19T02:48:28.208Z,87.14
2023-07-19T02:50:59.770Z,86.94
2023-07-19T02:53:28.205Z,87.54
2023-07-19T02:55:56.493Z,87.70
2023-07-19T02:58:26.152Z,86.14
2023-07-19T03:00:55.566Z,86.09
2023-07-19T03:03:24.280Z,86.06
2023-07-19T03:05:52.664Z,85.24
2023-07-19T03:08:22.371Z,86.15
2023-07-19T03:10:54.824Z,86.38
2023-07-19T03:13:23.318Z,85.41
2023-07-19T03:15:51.842Z,85.15
2023-07-19T03:18:20.188Z,85.47
2023-07-19T03:20:48.673Z,85.99
2023-07-19T03:23:17.038Z,86.53
2023-07-19T03:25:46.863Z,85.83
2023-07-19T03:28:15.210Z,86.15
2023-07-19T03:30:43.665Z,85.77
2023-07-19T03:33:13.694Z,86.34
2023-07-19T03:35:42.053Z,86.64
2023-07-19T03:38:10.370Z,85.84
2023-07-19T03:40:38.877Z,86.00
2023-07-19T03:43:08.634Z,86.32
2023-07-19T03:45:37.557Z,86.11
2023-07-19T03:48:06.625Z,85.76
2023-07-19T03:50:36.260Z,86.45
2023-07-19T03:53:05.754Z,85.42
2023-07-19T03:55:34.952Z,86.16
2023-07-19T03:58:04.986Z,86.48
2023-07-19T04:00:35.070Z,86.61
2023-07-19T04:03:03.486Z,86.06
2023-07-19T04:05:31.947Z,86.45
2023-07-19T04:08:02.590Z,85.55
2023-07-19T04:10:32.287Z,86.70
2023-07-19T04:13:00.648Z,85.14
2023-07-19T04:15:29.186Z,86.03
2023-07-19T04:17:59.032Z,86.10
2023-07-19T04:20:28.601Z,87.45
2023-07-19T04:22:57.387Z,86.32
2023-07-19T04:25:25.953Z,85.69
2023-07-19T04:27:55.287Z,85.26
2023-07-19T04:30:23.657Z,86.79
2023-07-19T04:32:56.344Z,86.85
2023-07-19T04:35:26.505Z,87.61
2023-07-19T04:37:55.226Z,86.57
2023-07-19T04:40:23.951Z,86.70
2023-07-19T04:42:53.250Z,85.48
2023-07-19T04:45:22.775Z,88.89
2023-07-19T04:47:51.372Z,87.80
2023-07-19T04:50:20.009Z,86.74
2023-07-19T04:52:49.763Z,87.27
2023-07-19T04:55:18.804Z,86.00
2023-07-19T04:57:47.452Z,87.58
2023-07-19T05:00:19.271Z,87.43
2023-07-19T05:02:48.369Z,87.83
2023-07-19T05:05:16.737Z,86.61
2023-07-19T05:07:45.078Z,86.33
2023-07-19T05:10:14.869Z,88.34
2023-07-19T05:12:43.305Z,88.30
2023-07-19T05:15:12.412Z,88.80
2023-07-19T05:17:40.792Z,88.40
2023-07-19T05:20:10.398Z,89.12
2023-07-19T05:22:39.848Z,87.97
2023-07-19T05:25:10.630Z,89.02
2023-07-19T05:27:40.674Z,89.02
2023-07-19T05:30:10.614Z,89.02
2023-07-19T05:32:39.071Z,87.80
2023-07-19T05:35:08.431Z,87.73
2023-07-19T05:37:36.722Z,88.66
2023-07-19T05:40:06.193Z,87.22
2023-07-19T05:42:34.590Z,87.41
2023-07-19T05:45:04.730Z,90.51
2023-07-19T05:47:33.056Z,87.66
2023-07-19T05:50:01.700Z,87.51
2023-07-19T05:52:30.303Z,90.76
2023-07-19T05:54:58.827Z,88.86
2023-07-19T05:57:27.174Z,87.27
2023-07-19T06:00:03.542Z,87.30
2023-07-19T06:02:53.326Z,88.01
2023-07-19T06:05:25.433Z,87.95
2023-07-19T06:07:54.400Z,90.15
2023-07-19T06:10:23.034Z,87.49
2023-07-19T06:12:51.808Z,86.86
2023-07-19T06:15:20.282Z,87.57
2023-07-19T06:17:50.014Z,88.09
2023-07-19T06:20:18.498Z,89.25
2023-07-19T06:22:47.057Z,88.25
2023-07-19T06:25:16.062Z,87.98
2023-07-19T06:27:44.635Z,86.99
2023-07-19T06:30:14.353Z,88.14
2023-07-19T06:32:42.783Z,86.86
2023-07-19T06:35:12.698Z,88.02
2023-07-19T06:37:40.962Z,87.28
2023-07-19T06:40:10.308Z,87.87
2023-07-19T06:42:38.831Z,88.50
2023-07-19T06:45:08.332Z,88.45
2023-07-19T06:47:36.703Z,88.01
2023-07-19T06:50:05.933Z,88.31
2023-07-19T06:52:36.582Z,88.59
2023-07-19T06:55:06.096Z,88.51
2023-07-19T06:57:34.449Z,87.20
2023-07-19T07:00:04.535Z,87.32
2023-07-19T07:02:34.092Z,86.82
2023-07-19T07:05:02.719Z,88.60
2023-07-19T07:07:31.091Z,87.95
2023-07-19T07:10:05.983Z,89.07
2023-07-19T07:12:34.803Z,91.06
2023-07-19T07:15:03.525Z,90.81
2023-07-19T07:17:34.256Z,89.09
2023-07-19T07:20:02.521Z,90.30
2023-07-19T07:22:30.960Z,91.85
2023-07-19T07:25:01.048Z,92.24
2023-07-19T07:27:29.713Z,91.37
2023-07-19T07:29:58.139Z,92.59
2023-07-19T07:32:26.667Z,91.77
2023-07-19T07:34:54.972Z,94.76
2023-07-19T07:37:23.533Z,94.14
2023-07-19T07:39:51.799Z,93.73
2023-07-19T07:42:25.016Z,93.69
2023-07-19T07:44:53.392Z,96.50
2023-07-19T07:47:21.761Z,94.27
2023-07-19T07:49:50.263Z,94.40
2023-07-19T07:52:18.627Z,94.68
2023-07-19T07:54:47.002Z,95.46
2023-07-19T07:57:15.291Z,94.23
2023-07-19T07:59:44.968Z,94.87
2023-07-19T08:02:13.318Z,95.81
2023-07-19T08:04:41.787Z,95.69
2023-07-19T08:07:10.106Z,96.10
2023-07-19T08:09:38.542Z,96.53
2023-07-19T08:12:07.923Z,95.87
2023-07-19T08:14:37.357Z,95.43
2023-07-19T08:17:07.181Z,95.46
2023-07-19T08:19:35.862Z,96.04
2023-07-19T08:22:05.941Z,94.98
2023-07-19T08:24:34.803Z,94.45
2023-07-19T08:27:03.143Z,94.35
2023-07-19T08:29:31.473Z,94.22
2023-07-19T08:31:59.744Z,95.50
2023-07-19T08:34:29.398Z,95.07
2023-07-19T08:36:57.735Z,94.41
2023-07-19T08:39:28.262Z,95.00
2023-07-19T08:41:56.541Z,93.37
2023-07-19T08:44:25.140Z,94.30
2023-07-19T08:46:54.083Z,95.43
2023-07-19T08:49:23.110Z,96.20
2023-07-19T08:51:53.028Z,94.98
2023-07-19T08:54:21.457Z,95.41
2023-07-19T08:56:50.254Z,95.79
2023-07-19T08:59:18.558Z,95.87
2023-07-19T09:01:46.979Z,94.88
2023-07-19T09:04:15.358Z,95.97
2023-07-19T09:06:44.463Z,94.06
2023-07-19T09:09:15.219Z,95.51
2023-07-19T09:11:45.309Z,95.55
2023-07-19T09:14:13.680Z,95.81
2023-07-19T09:16:42.423Z,95.88
2023-07-19T09:19:11.896Z,95.26
2023-07-19T09:21:44.825Z,95.08
2023-07-19T09:24:15.734Z,94.84
2023-07-19T09:26:50.320Z,97.08
2023-07-19T09:29:18.806Z,95.95
2023-07-19T09:31:57.633Z,95.20
2023-07-19T09:34:28.759Z,96.49
2023-07-19T09:36:57.667Z,95.03
2023-07-19T09:39:27.668Z,96.62
2023-07-19T09:41:56.679Z,95.36
2023-07-19T09:44:25.709Z,95.63
2023-07-19T09:46:55.658Z,95.97
2023-07-19T09:49:24.591Z,95.04
2023-07-19T09:51:57.343Z,95.49
2023-07-19T09:54:29.196Z,94.94
2023-07-19T09:56:57.542Z,96.36
2023-07-19T09:59:29.994Z,96.05
2023-07-19T10:01:58.604Z,96.71
2023-07-19T10:04:28.132Z,95.10
2023-07-19T10:07:05.538Z,95.80
2023-07-19T10:09:38.418Z,94.85
2023-07-19T10:12:24.253Z,94.65
2023-07-19T10:14:56.985Z,92.77
2023-07-19T10:17:25.961Z,91.25
2023-07-19T10:20:11.902Z,91.82
2023-07-19T10:22:56.991Z,93.33
2023-07-19T10:25:29.551Z,93.03
2023-07-19T10:28:09.278Z,91.92
2023-07-19T10:30:59.097Z,92.92
2023-07-19T10:33:32.530Z,93.17
2023-07-19T10:36:06.018Z,93.57
2023-07-19T10:38:34.888Z,94.69
2023-07-19T10:41:06.535Z,94.20
2023-07-19T10:43:48.537Z,94.18
2023-07-19T10:46:20.371Z,94.88
2023-07-19T10:48:52.136Z,95.51
2023-07-19T10:51:21.743Z,94.88
2023-07-19T10:53:57.924Z,95.22
2023-07-19T10:56:29.064Z,95.19
2023-07-19T10:59:00.469Z,95.19
2023-07-19T11:01:30.454Z,95.65
2023-07-19T11:04:04.355Z,94.61
2023-07-19T11:06:33.284Z,96.36
2023-07-19T11:09:08.532Z,95.61
2023-07-19T11:11:40.322Z,95.37
2023-07-19T11:14:08.924Z,94.27
2023-07-19T11:16:37.388Z,95.45
2023-07-19T11:19:05.839Z,94.64
2023-07-19T11:21:34.304Z,94.12
2023-07-19T11:24:03.754Z,97.45
2023-07-19T11:26:32.291Z,95.12
2023-07-19T11:29:02.020Z,96.77
2023-07-19T11:31:32.652Z,96.43
2023-07-19T11:34:07.945Z,94.11
2023-07-19T11:36:36.591Z,94.91
2023-07-19T11:39:05.264Z,95.34
2023-07-19T11:41:34.657Z,97.10
2023-07-19T11:44:04.411Z,96.24
2023-07-19T11:46:32.782Z,93.83
2023-07-19T11:49:01.543Z,94.23
2023-07-19T11:51:29.953Z,95.04
2023-07-19T11:53:58.497Z,95.46
2023-07-19T11:56:29.278Z,95.64
2023-07-19T11:58:58.567Z,94.77
2023-07-19T12:01:28.874Z,95.01
2023-07-19T12:04:01.553Z,94.89
2023-07-19T12:06:30.597Z,94.66
2023-07-19T12:20:50.955Z,94.32
2023-07-19T12:23:19.396Z,94.21
2023-07-19T12:25:48.636Z,94.65
2023-07-19T12:28:17.550Z,94.43
2023-07-19T12:30:46.504Z,94.87
2023-07-19T12:52:52.420Z,91.27
2023-07-19T12:55:21.425Z,90.18
2023-07-19T12:57:50.132Z,88.44
2023-07-19T13:00:19.788Z,86.02
2023-07-19T13:02:48.403Z,84.83
2023-07-19T13:05:17.148Z,89.85
2023-07-19T13:07:45.474Z,87.30
2023-07-19T13:10:15.728Z,89.16
2023-07-19T13:12:44.170Z,89.92
2023-07-19T13:15:12.803Z,93.56
2023-07-19T13:17:43.003Z,92.80
2023-07-19T13:20:11.829Z,92.72
2023-07-19T13:22:40.961Z,93.00
2023-07-19T13:25:09.909Z,92.50
2023-07-19T13:27:39.682Z,93.76
2023-07-19T13:30:09.485Z,94.78
2023-07-19T13:32:38.092Z,92.55
2023-07-19T13:35:13.292Z,95.10
2023-07-19T13:40:14.776Z,93.95
2023-07-19T13:42:47.239Z,92.84
2023-07-19T13:45:15.721Z,93.18
2023-07-19T13:47:44.749Z,92.73
2023-07-19T13:50:13.304Z,95.44
2023-07-19T13:52:42.221Z,95.13
2023-07-19T13:55:11.066Z,95.78
2023-07-19T13:57:39.538Z,95.72
2023-07-19T14:00:11.118Z,97.90
2023-07-19T14:02:40.332Z,95.37
2023-07-19T14:05:10.798Z,96.36
2023-07-19T14:07:39.381Z,95.05
2023-07-19T14:10:09.285Z,93.35
2023-07-19T14:12:38.361Z,93.51
2023-07-19T14:15:09.518Z,91.31
2023-07-19T14:17:38.524Z,92.40
2023-07-19T14:20:08.260Z,91.53
2023-07-19T14:22:37.447Z,93.87
2023-07-19T14:25:08.010Z,94.07
2023-07-19T14:27:38.131Z,90.97
2023-07-19T14:30:07.964Z,91.69
2023-07-19T14:32:37.915Z,90.96
2023-07-19T14:35:07.038Z,93.33
2023-07-19T14:37:35.588Z,93.14
2023-07-19T14:40:05.242Z,93.44
2023-07-19T14:42:33.683Z,95.39
2023-07-19T14:45:01.912Z,94.88
2023-07-19T14:47:30.338Z,96.05
2023-07-19T14:50:00.290Z,95.33
2023-07-19T14:52:28.770Z,96.12
2023-07-19T14:54:57.217Z,94.14
2023-07-19T14:57:25.668Z,86.20
2023-07-19T15:05:02.184Z,84.16
2023-07-19T15:07:30.721Z,83.77
2023-07-19T15:09:59.039Z,85.02
2023-07-19T15:12:27.551Z,85.39
2023-07-19T15:14:56.002Z,83.97
2023-07-19T15:17:25.909Z,86.44
2023-07-19T15:19:55.088Z,87.04
2023-07-19T15:22:24.979Z,86.80
2023-07-19T15:24:53.346Z,86.13
2023-07-19T15:27:21.863Z,94.36
2023-07-19T15:29:50.439Z,96.04
2023-07-19T15:32:18.785Z,96.32
2023-07-19T15:34:47.222Z,95.38
2023-07-19T15:37:15.482Z,95.75
2023-07-19T15:39:46.144Z,95.16
2023-07-19T15:42:15.055Z,94.87
2023-07-19T15:44:43.373Z,94.55
2023-07-19T15:47:11.662Z,93.27
2023-07-19T15:49:40.028Z,94.32
2023-07-19T15:52:11.709Z,92.96
2023-07-19T15:54:40.002Z,91.43
2023-07-19T15:57:10.076Z,90.24
2023-07-19T15:59:39.151Z,89.41
2023-07-19T16:02:10.674Z,89.01
2023-07-19T16:04:39.255Z,85.58
2023-07-19T16:07:07.606Z,83.42
2023-07-19T16:09:36.202Z,81.13
2023-07-19T16:12:04.806Z,78.50
2023-07-19T16:14:34.470Z,75.00
2023-07-19T16:17:02.865Z,75.77
2023-07-19T16:19:31.341Z,76.64
2023-07-19T16:21:59.646Z,77.04
2023-07-19T16:24:28.087Z,76.19
2023-07-19T16:26:56.368Z,74.47
2023-07-19T16:29:24.794Z,74.92
2023-07-19T16:31:56.956Z,74.04
2023-07-19T16:34:25.460Z,73.79
2023-07-19T16:36:53.817Z,74.76
2023-07-19T16:39:22.232Z,74.85
2023-07-19T16:41:50.620Z,77.01
2023-07-19T16:44:18.860Z,74.88
2023-07-19T16:46:47.295Z,74.57
2023-07-19T16:49:17.216Z,72.61
2023-07-19T16:51:45.962Z,75.05
2023-07-19T16:54:14.263Z,74.52
2023-07-19T16:56:42.573Z,77.50
2023-07-19T16:59:11.008Z,71.77
2023-07-19T17:01:39.394Z,74.86
2023-07-19T17:04:07.810Z,74.47
2023-07-19T17:06:37.509Z,74.73
2023-07-19T17:09:05.896Z,73.90
2023-07-19T17:11:34.668Z,74.06
2023-07-19T17:14:03.019Z,74.82
2023-07-19T17:16:31.480Z,71.28
2023-07-19T17:19:14.557Z,70.86
2023-07-19T17:21:46.186Z,71.10
2023-07-19T17:24:14.862Z,73.77
2023-07-19T17:26:43.224Z,75.32
2023-07-19T17:29:11.545Z,74.39
2023-07-19T17:31:39.896Z,74.76
2023-07-19T17:34:08.239Z,73.75
2023-07-19T17:36:36.543Z,73.90
2023-07-19T17:39:06.264Z,77.62
2023-07-19T17:41:34.672Z,74.68
2023-07-19T17:44:03.549Z,75.50
2023-07-19T17:46:31.870Z,75.73
2023-07-19T17:49:00.328Z,75.01
2023-07-19T17:51:28.698Z,76.34
2023-07-19T17:53:56.973Z,75.15
2023-07-19T17:56:26.823Z,75.83
2023-07-19T17:58:55.235Z,75.50
2023-07-19T18:01:23.725Z,73.42
2023-07-19T18:03:53.141Z,72.94
2023-07-19T18:06:21.760Z,74.06
2023-07-19T18:08:53.012Z,74.21
2023-07-19T18:11:21.612Z,75.41
2023-07-19T18:13:51.804Z,76.86
2023-07-19T18:16:20.239Z,77.60
2023-07-19T18:18:48.554Z,74.74
2023-07-19T18:21:16.952Z,76.05
2023-07-19T18:23:45.500Z,74.42
2023-07-19T18:26:13.784Z,75.63
2023-07-19T18:28:42.035Z,76.00
2023-07-19T18:31:11.842Z,76.92
2023-07-19T18:33:40.207Z,78.50
2023-07-19T18:36:08.538Z,77.43
2023-07-19T18:38:38.335Z,77.20
2023-07-19T18:41:07.133Z,78.37
2023-07-19T18:43:35.858Z,77.46
2023-07-19T18:46:04.293Z,76.85
2023-07-19T18:48:34.560Z,75.61
2023-07-19T18:51:02.940Z,75.35
2023-07-19T18:53:36.926Z,76.73
2023-07-19T18:56:05.660Z,75.57
2023-07-19T18:58:34.265Z,75.28
2023-07-19T19:01:02.681Z,75.22
2023-07-19T19:03:31.312Z,74.27
2023-07-19T19:06:01.197Z,73.71
2023-07-19T19:08:29.805Z,73.76
2023-07-19T19:10:58.086Z,75.05
2023-07-19T19:13:26.504Z,75.57
2023-07-19T19:15:54.868Z,75.28
2023-07-19T19:18:23.244Z,75.63
2023-07-19T19:20:51.925Z,76.18
2023-07-19T19:23:21.596Z,76.41
2023-07-19T19:25:50.308Z,77.12
2023-07-19T19:28:19.186Z,77.83
2023-07-19T19:30:48.049Z,77.61
2023-07-19T19:33:16.433Z,78.24
2023-07-19T19:35:44.838Z,77.53
2023-07-19T19:38:13.363Z,77.53
2023-07-19T19:40:43.743Z,78.83
2023-07-19T19:43:12.113Z,78.40
2023-07-19T19:45:40.349Z,80.52
2023-07-19T19:48:08.669Z,79.69
2023-07-19T19:50:37.027Z,80.45
2023-07-19T19:53:10.227Z,81.20
2023-07-19T19:58:12.203Z,82.04
2023-07-19T20:00:41.957Z,82.82
2023-07-19T20:08:13.353Z,82.55
2023-07-19T20:10:59.189Z,82.69
2023-07-19T20:13:29.358Z,83.16
2023-07-19T20:16:00.680Z,84.04
2023-07-19T20:21:01.287Z,84.66
2023-07-19T20:23:30.009Z,84.99
2023-07-19T20:26:12.720Z,85.36
2023-07-19T20:28:47.691Z,85.50
2023-07-19T20:34:33.748Z,85.49
2023-07-19T20:41:40.178Z,86.08
2023-07-19T20:44:11.251Z,86.38
2023-07-19T20:46:39.904Z,86.00
2023-07-19T20:49:15.117Z,85.30
2023-07-19T20:51:44.666Z,83.86
2023-07-19T20:54:14.867Z,84.16
2023-07-19T20:56:43.884Z,83.42
2023-07-19T20:59:14.576Z,82.65
2023-07-19T21:01:43.933Z,82.44
2023-07-19T21:04:12.256Z,82.78
2023-07-19T21:06:40.549Z,83.16
2023-07-19T21:09:08.896Z,82.25
2023-07-19T21:11:37.342Z,82.82
2023-07-19T21:14:05.703Z,83.60
2023-07-19T21:16:35.869Z,82.14
2023-07-19T21:19:04.257Z,82.07
2023-07-19T21:21:32.588Z,82.72
2023-07-19T21:24:02.416Z,82.74
2023-07-19T21:26:33.469Z,81.68
2023-07-19T21:29:01.766Z,81.88
2023-07-19T21:31:30.104Z,81.92
2023-07-19T21:33:59.828Z,81.80
2023-07-19T21:36:28.173Z,81.89
2023-07-19T21:38:56.516Z,81.63
2023-07-19T21:41:25.279Z,80.69
2023-07-19T21:43:53.662Z,80.62
2023-07-19T21:46:22.379Z,80.89
2023-07-19T21:48:51.041Z,81.10
2023-07-19T21:51:21.081Z,81.12
2023-07-19T21:53:49.630Z,81.25
2023-07-19T21:56:19.531Z,80.60
2023-07-19T21:58:49.150Z,81.00
2023-07-19T22:01:17.525Z,81.17
2023-07-19T22:03:45.916Z,81.10
2023-07-19T22:06:14.447Z,81.45
2023-07-19T22:08:44.527Z,81.40
2023-07-19T22:11:13.068Z,81.47
2023-07-19T22:13:42.970Z,81.73
2023-07-19T22:16:11.352Z,82.19
2023-07-19T22:18:39.716Z,81.53
2023-07-19T22:21:20.921Z,81.92
2023-07-19T22:23:52.136Z,82.73
2023-07-19T22:26:20.847Z,82.49
2023-07-19T22:28:51.725Z,83.31
2023-07-19T22:31:21.074Z,82.91
2023-07-19T22:33:49.538Z,83.35
2023-07-19T22:36:17.809Z,83.71
2023-07-19T22:38:46.094Z,83.80
2023-07-19T22:41:16.350Z,83.85
2023-07-19T22:43:44.660Z,84.44
2023-07-19T22:46:13.244Z,84.90
2023-07-19T22:48:41.564Z,84.54
2023-07-19T22:51:11.742Z,85.47
2023-07-19T22:53:40.162Z,85.66
2023-07-19T22:56:09.000Z,85.90
2023-07-19T22:58:38.644Z,86.33
2023-07-19T23:01:07.167Z,86.38
2023-07-19T23:03:36.423Z,86.11
2023-07-19T23:06:07.101Z,86.35
2023-07-19T23:08:35.608Z,85.93
2023-07-19T23:11:04.383Z,86.33
2023-07-19T23:13:32.678Z,86.74
2023-07-19T23:16:02.635Z,87.38
2023-07-19T23:18:30.992Z,87.24
2023-07-19T23:20:59.278Z,87.04
2023-07-19T23:23:27.950Z,86.80
2023-07-19T23:25:56.489Z,87.04
2023-07-19T23:28:24.844Z,86.74
2023-07-19T23:30:53.161Z,86.73
2023-07-19T23:33:22.990Z,87.40
2023-07-19T23:35:51.800Z,87.70
2023-07-19T23:38:20.171Z,87.42
2023-07-19T23:40:49.353Z,87.51
2023-07-19T23:43:18.573Z,87.90
2023-07-19T23:45:46.908Z,88.12
2023-07-19T23:48:15.223Z,87.55
2023-07-19T23:50:44.961Z,88.45
2023-07-19T23:53:13.471Z,88.95
2023-07-19T23:55:41.748Z,89.16
2023-07-19T23:58:10.037Z,89.24
